Terminal Aerodrome Forecast
Issued by NWS Duluth, MN

Home | Current Version | Previous Version | Text Only | Print | Product List | Glossary On
Versions: 1 2 3 4 5 6 7 8 9 10 11 12 13 14 15 16 17 18 19 20 21 22 23 24 25 26 27 28 29 30 31
000
FTUS43 KDLH 030605 CCB
TAFDLH
TAF COR
KDLH 030605Z 0306/0406 09007KT 1 1/2SM -DZ BR OVC002
     FM030700 09005KT 1/2SM -DZ FG OVC002
      TEMPO 0308/0312 1/4SM -DZ FG OVC002
     FM031300 10008KT 1 1/2SM BR SCT001 OVC008
     FM031600 10010KT P6SM SCT008 BKN015=

USA.gov is the U.S. government's official web portal to all federal, state and local government web resources and services.